Time;durP1;ratioP1;P1;durP2;ratioP2;P2;SDS_P1;SDS_P2;PMS_P1;PMS_P2;Temp;Humidity;BMP_temperature;BMP_pressure;BME280_temperature;BME280_humidity;BME280_pressure;Samples;Min_cycle;Max_cycle;Signal;HPM_P1;HPM_P2
2023/11/03 00:01:15;;;;;;;;;;;;;;;17.86;53.31;96200.09;10332012;28;1948;-69
2023/11/03 00:06:11;;;;;;;;;;;;;;;17.81;53.48;96189.19;10331907;28;1060;-69
2023/11/03 00:11:07;;;;;;;;;;;;;;;17.80;53.50;96203.34;10331816;28;750;-69
2023/11/03 00:16:03;;;;;;;;;;;;;;;17.77;53.16;96211.53;10332150;28;893;-69
2023/11/03 00:21:00;;;;;;;;;;;;;;;17.74;53.20;96216.13;10331526;28;1981;-70
2023/11/03 00:25:56;;;;;;;;;;;;;;;17.75;53.53;96222.22;10331284;28;782;-70
2023/11/03 00:30:52;;;;;;;;;;;;;;;17.71;53.21;96223.47;10331013;28;1121;-69
2023/11/03 00:35:48;;;;;;;;;;;;;;;17.72;53.53;96233.06;10331516;28;866;-69
2023/11/03 00:40:45;;;;;;;;;;;;;;;17.71;53.56;96232.22;10330830;28;1918;-69
2023/11/03 00:45:41;;;;;;;;;;;;;;;17.66;53.58;96229.22;10331128;28;854;-70
2023/11/03 00:50:37;;;;;;;;;;;;;;;17.66;53.74;96239.75;10330942;28;847;-69
2023/11/03 00:55:33;;;;;;;;;;;;;;;17.64;53.81;96252.25;10330762;28;972;-69
2023/11/03 01:00:34;;;;;;;;;;;;;;;17.64;53.64;96261.97;10329282;28;1955;-69
2023/11/03 01:05:30;;;;;;;;;;;;;;;17.60;53.72;96269.31;10330432;28;890;-69
2023/11/03 01:10:28;;;;;;;;;;;;;;;17.60;53.79;96287.75;10330043;28;864;-70
2023/11/03 01:15:23;;;;;;;;;;;;;;;17.58;53.65;96287.09;10329442;28;834;-69
2023/11/03 01:20:19;;;;;;;;;;;;;;;17.57;53.67;96282.78;10329689;28;1894;-69
2023/11/03 01:25:15;;;;;;;;;;;;;;;17.53;53.85;96281.44;10328985;28;1075;-69
2023/11/03 01:30:11;;;;;;;;;;;;;;;17.52;54.00;96277.97;10328232;28;1381;-69
2023/11/03 01:35:08;;;;;;;;;;;;;;;17.53;53.94;96294.59;10328626;28;891;-69
2023/11/03 01:40:08;;;;;;;;;;;;;;;17.52;54.00;96296.38;10328420;28;1910;-69
2023/11/03 01:45:04;;;;;;;;;;;;;;;17.51;54.07;96299.19;10327157;28;1051;-69
2023/11/03 01:50:00;;;;;;;;;;;;;;;17.51;54.12;96301.81;10328541;28;945;-70
2023/11/03 01:54:56;;;;;;;;;;;;;;;17.48;54.07;96289.78;10327773;28;882;-70
2023/11/03 01:59:52;;;;;;;;;;;;;;;17.47;54.15;96297.81;10327513;28;1944;-69
2023/11/03 02:04:47;;;;;;;;;;;;;;;17.46;54.10;96293.53;10327972;28;951;-69
2023/11/03 02:09:43;;;;;;;;;;;;;;;17.45;54.04;96297.97;10327390;28;826;-69
2023/11/03 02:14:39;;;;;;;;;;;;;;;17.45;54.07;96312.97;10327003;28;998;-69
2023/11/03 02:19:35;;;;;;;;;;;;;;;17.45;54.16;96315.59;10326784;28;1898;-69
2023/11/03 02:24:31;;;;;;;;;;;;;;;17.42;54.18;96306.19;10327278;28;865;-69
2023/11/03 02:29:27;;;;;;;;;;;;;;;17.40;54.18;96318.66;10327259;28;1347;-69
2023/11/03 02:34:23;;;;;;;;;;;;;;;17.39;54.22;96308.25;10326503;28;830;-69
2023/11/03 02:39:19;;;;;;;;;;;;;;;17.38;54.16;96309.25;10325413;28;1902;-69
2023/11/03 02:44:15;;;;;;;;;;;;;;;17.38;54.09;96302.19;10326095;28;818;-69
2023/11/03 02:49:11;;;;;;;;;;;;;;;17.37;54.22;96324.22;10325849;28;985;-69
2023/11/03 02:54:07;;;;;;;;;;;;;;;17.35;54.47;96315.63;10326371;28;880;-69
2023/11/03 02:59:03;;;;;;;;;;;;;;;17.33;54.23;96312.31;10325648;28;1894;-69
2023/11/03 03:03:59;;;;;;;;;;;;;;;17.31;54.14;96315.09;10325541;28;833;-69
2023/11/03 03:08:55;;;;;;;;;;;;;;;17.33;54.21;96317.59;10325770;28;936;-69
2023/11/03 03:13:51;;;;;;;;;;;;;;;17.30;54.14;96329.22;10326195;28;794;-69
2023/11/03 03:18:47;;;;;;;;;;;;;;;17.28;54.39;96323.28;10325654;28;1957;-69
2023/11/03 03:23:43;;;;;;;;;;;;;;;17.27;54.29;96319.00;10325769;28;813;-69
2023/11/03 03:28:39;;;;;;;;;;;;;;;17.25;54.25;96326.22;10325240;28;1130;-69
2023/11/03 03:33:34;;;;;;;;;;;;;;;17.26;54.26;96332.28;10324601;28;1289;-69
2023/11/03 03:38:30;;;;;;;;;;;;;;;17.26;54.25;96335.75;10324705;28;1909;-69
2023/11/03 03:43:26;;;;;;;;;;;;;;;17.23;54.25;96336.03;10324906;28;814;-69
2023/11/03 03:48:22;;;;;;;;;;;;;;;17.23;54.16;96337.84;10324684;28;838;-69
2023/11/03 03:53:18;;;;;;;;;;;;;;;17.23;54.41;96341.31;10323979;28;807;-69
2023/11/03 03:58:14;;;;;;;;;;;;;;;17.21;54.29;96351.19;10323848;28;1955;-69
2023/11/03 04:03:10;;;;;;;;;;;;;;;17.20;54.51;96352.13;10324383;28;860;-69
2023/11/03 04:08:06;;;;;;;;;;;;;;;17.21;54.48;96355.59;10328842;28;819;-69
2023/11/03 04:13:02;;;;;;;;;;;;;;;17.19;54.52;96347.84;10332799;28;857;-69
2023/11/03 04:17:58;;;;;;;;;;;;;;;17.19;54.48;96353.13;10332110;28;1961;-70
2023/11/03 04:22:54;;;;;;;;;;;;;;;17.15;54.45;96359.63;10331342;28;835;-70
2023/11/03 04:27:49;;;;;;;;;;;;;;;17.15;54.47;96370.16;10331215;28;806;-70
2023/11/03 04:32:47;;;;;;;;;;;;;;;17.14;54.44;96376.41;10332069;28;1164;-69
2023/11/03 04:37:44;;;;;;;;;;;;;;;17.12;54.42;96372.25;10331330;28;1973;-72
2023/11/03 04:42:40;;;;;;;;;;;;;;;17.11;54.46;96383.75;10329990;28;898;-72
2023/11/03 04:47:36;;;;;;;;;;;;;;;17.09;54.35;96386.53;10330575;28;818;-72
2023/11/03 04:52:32;;;;;;;;;;;;;;;17.07;54.25;96388.47;10329770;28;924;-72
2023/11/03 04:57:28;;;;;;;;;;;;;;;17.20;53.79;96381.09;10330766;28;822;-70
2023/11/03 05:02:26;;;;;;;;;;;;;;;17.32;53.27;96384.38;10330457;28;1959;-70
2023/11/03 05:07:22;;;;;;;;;;;;;;;17.36;52.92;96384.91;10330626;28;838;-70
2023/11/03 05:12:18;;;;;;;;;;;;;;;17.46;53.19;96393.59;10330032;28;830;-69
2023/11/03 05:17:14;;;;;;;;;;;;;;;17.52;52.21;96385.91;10325712;28;1085;-70
2023/11/03 05:22:10;;;;;;;;;;;;;;;17.58;52.34;96381.03;10328615;28;1937;-70
2023/11/03 05:27:08;;;;;;;;;;;;;;;17.62;52.45;96398.22;10328297;28;810;-70
2023/11/03 05:32:04;;;;;;;;;;;;;;;17.69;52.31;96396.66;10328797;28;1095;-70
2023/11/03 05:36:59;;;;;;;;;;;;;;;17.69;52.36;96401.94;10327844;28;814;-69
2023/11/03 05:41:55;;;;;;;;;;;;;;;17.71;52.58;96399.94;10328074;28;1975;-70
2023/11/03 05:46:53;;;;;;;;;;;;;;;17.75;52.00;96412.69;10326821;28;1260;-69
2023/11/03 05:51:49;;;;;;;;;;;;;;;17.77;52.18;96422.28;10328272;28;869;-70
2023/11/03 05:56:46;;;;;;;;;;;;;;;17.80;52.36;96428.09;10327501;28;825;-70
2023/11/03 06:01:42;;;;;;;;;;;;;;;17.85;52.33;96425.84;10328591;28;1914;-70
2023/11/03 06:06:37;;;;;;;;;;;;;;;17.87;52.44;96430.97;10328408;28;942;-71
2023/11/03 06:11:33;;;;;;;;;;;;;;;17.86;52.24;96439.84;10327226;28;825;-70
2023/11/03 06:16:30;;;;;;;;;;;;;;;17.89;52.17;96439.53;10327634;28;834;-70
2023/11/03 06:21:26;;;;;;;;;;;;;;;17.88;52.41;96437.91;10326736;28;1894;-69
2023/11/03 06:26:22;;;;;;;;;;;;;;;17.89;52.03;96450.06;10327259;28;938;-71
2023/11/03 06:31:18;;;;;;;;;;;;;;;17.89;52.26;96460.63;10326056;28;1581;-70
2023/11/03 06:36:15;;;;;;;;;;;;;;;17.92;52.35;96461.16;10327260;28;877;-69
2023/11/03 06:41:11;;;;;;;;;;;;;;;17.91;52.18;96475.31;10327133;28;1902;-70
2023/11/03 06:46:09;;;;;;;;;;;;;;;17.90;51.96;96475.47;10327007;28;962;-71
2023/11/03 06:51:04;;;;;;;;;;;;;;;17.91;51.66;96471.84;10325868;28;988;-71
2023/11/03 06:56:02;;;;;;;;;;;;;;;17.87;52.04;96467.88;10325838;28;981;-70
2023/11/03 07:00:59;;;;;;;;;;;;;;;17.88;52.21;96474.78;10325182;28;1894;-69
2023/11/03 07:05:55;;;;;;;;;;;;;;;17.93;51.63;96483.06;10326219;28;845;-69
2023/11/03 07:10:51;;;;;;;;;;;;;;;17.95;51.95;96473.22;10326425;28;805;-69
2023/11/03 07:15:46;;;;;;;;;;;;;;;17.94;51.44;96480.28;10325392;28;813;-69
2023/11/03 07:20:42;;;;;;;;;;;;;;;17.92;51.74;96481.41;10326059;28;1897;-69
2023/11/03 07:25:38;;;;;;;;;;;;;;;17.94;51.86;96480.28;10325201;28;892;-69
2023/11/03 07:30:34;;;;;;;;;;;;;;;17.92;51.77;96478.75;10324930;28;1374;-69
2023/11/03 07:35:30;;;;;;;;;;;;;;;17.88;51.40;96470.34;10325597;28;946;-69
2023/11/03 07:40:27;;;;;;;;;;;;;;;17.85;51.29;96480.34;10324838;28;1910;-69
2023/11/03 07:45:23;;;;;;;;;;;;;;;17.87;51.40;96486.31;10332927;28;890;-69
2023/11/03 07:50:19;;;;;;;;;;;;;;;17.83;51.42;96480.47;10332762;28;876;-69
2023/11/03 07:55:15;;;;;;;;;;;;;;;17.85;51.25;96501.41;10332763;28;1016;-69
2023/11/03 08:00:12;;;;;;;;;;;;;;;17.84;51.43;96505.00;10332313;28;1897;-70
2023/11/03 08:05:07;;;;;;;;;;;;;;;17.87;51.16;96525.81;10332144;28;872;-70
2023/11/03 08:10:04;;;;;;;;;;;;;;;17.88;51.14;96530.09;10333302;28;912;-69
2023/11/03 08:15:00;;;;;;;;;;;;;;;17.85;51.46;96546.22;10332359;28;834;-69
2023/11/03 08:19:56;;;;;;;;;;;;;;;17.89;51.64;96571.28;10331507;28;1898;-69
2023/11/03 08:24:51;;;;;;;;;;;;;;;17.94;51.82;96564.59;10332161;28;881;-69
2023/11/03 08:29:47;;;;;;;;;;;;;;;17.91;51.88;96550.88;10331241;28;1796;-69
2023/11/03 08:34:43;;;;;;;;;;;;;;;17.93;51.80;96567.38;10331649;28;869;-69
2023/11/03 08:39:39;;;;;;;;;;;;;;;17.94;51.73;96606.75;10330852;28;1974;-69
2023/11/03 08:44:36;;;;;;;;;;;;;;;17.95;51.51;96618.16;10330702;28;989;-69
2023/11/03 08:49:32;;;;;;;;;;;;;;;17.94;51.99;96642.81;10330447;28;890;-69
2023/11/03 08:54:28;;;;;;;;;;;;;;;17.98;51.67;96660.03;10330130;28;849;-69
2023/11/03 08:59:24;;;;;;;;;;;;;;;17.95;51.65;96684.03;10330671;28;1969;-69
2023/11/03 09:04:20;;;;;;;;;;;;;;;17.95;51.67;96673.50;10329387;28;937;-69
2023/11/03 09:09:16;;;;;;;;;;;;;;;17.99;51.63;96688.03;10329814;28;779;-69
2023/11/03 09:14:12;;;;;;;;;;;;;;;17.97;51.73;96689.97;10330263;28;807;-69
2023/11/03 09:19:07;;;;;;;;;;;;;;;17.96;51.71;96698.84;10329646;28;1886;-69
2023/11/03 09:24:05;;;;;;;;;;;;;;;17.97;51.69;96692.59;10328827;28;1166;-69
2023/11/03 09:29:01;;;;;;;;;;;;;;;17.99;51.51;96695.09;10329483;28;1312;-69
2023/11/03 09:33:57;;;;;;;;;;;;;;;18.01;51.70;96703.72;10329071;28;853;-69
2023/11/03 09:38:53;;;;;;;;;;;;;;;17.99;51.57;96698.56;10329181;28;1914;-69
2023/11/03 09:43:48;;;;;;;;;;;;;;;18.00;51.56;96692.34;10328367;28;814;-69
2023/11/03 09:48:44;;;;;;;;;;;;;;;17.99;51.42;96690.66;10328827;28;1659;-69
2023/11/03 09:53:42;;;;;;;;;;;;;;;17.98;51.20;96699.56;10327983;28;1242;-69
2023/11/03 09:58:38;;;;;;;;;;;;;;;18.00;51.12;96702.88;10328295;28;1947;-69
2023/11/03 10:03:34;;;;;;;;;;;;;;;18.04;51.15;96696.34;10327012;28;850;-69
2023/11/03 10:08:30;;;;;;;;;;;;;;;18.03;50.71;96705.22;10327410;28;1023;-69
2023/11/03 10:13:27;;;;;;;;;;;;;;;18.05;50.68;96708.56;10327231;28;767;-69
2023/11/03 10:18:24;;;;;;;;;;;;;;;18.08;50.58;96704.81;10327524;28;1890;-69
2023/11/03 10:23:22;;;;;;;;;;;;;;;18.08;50.70;96703.00;10326965;28;854;-69
2023/11/03 10:28:18;;;;;;;;;;;;;;;18.10;50.43;96697.56;10326673;28;814;-69
2023/11/03 10:33:13;;;;;;;;;;;;;;;18.11;50.44;96697.44;10327052;28;1313;-69
2023/11/03 10:38:09;;;;;;;;;;;;;;;18.11;49.86;96702.72;10326229;28;1969;-69
2023/11/03 10:43:07;;;;;;;;;;;;;;;18.11;50.31;96705.34;10325567;28;935;-69
2023/11/03 10:48:03;;;;;;;;;;;;;;;18.10;49.99;96708.97;10326654;28;838;-69
2023/11/03 10:52:59;;;;;;;;;;;;;;;18.16;49.99;96705.75;10325318;28;956;-69
2023/11/03 10:57:57;;;;;;;;;;;;;;;18.10;49.70;96689.66;10325873;28;1913;-71
2023/11/03 11:02:53;;;;;;;;;;;;;;;18.07;49.48;96682.88;10325544;28;1008;-71
2023/11/03 11:07:49;;;;;;;;;;;;;;;18.09;49.85;96675.66;10325643;28;853;-70
2023/11/03 11:12:45;;;;;;;;;;;;;;;18.12;49.88;96662.19;10326185;28;841;-71
2023/11/03 11:17:41;;;;;;;;;;;;;;;18.14;49.43;96662.88;10325343;28;829;-70
2023/11/03 11:22:39;;;;;;;;;;;;;;;18.13;49.53;96676.19;10325803;28;1959;-71
2023/11/03 11:27:35;;;;;;;;;;;;;;;18.18;49.19;96674.81;10324752;28;754;-70
2023/11/03 11:32:31;;;;;;;;;;;;;;;18.17;49.10;96681.03;10325292;28;1116;-71
2023/11/03 11:37:27;;;;;;;;;;;;;;;18.14;49.64;96685.78;10325020;28;796;-70
2023/11/03 11:42:23;;;;;;;;;;;;;;;18.25;48.91;96697.94;10325407;28;1980;-71
2023/11/03 11:47:19;;;;;;;;;;;;;;;18.29;49.42;96694.06;10324843;28;841;-70
2023/11/03 11:52:15;;;;;;;;;;;;;;;18.29;49.69;96715.16;10325132;28;901;-70
2023/11/03 11:57:11;;;;;;;;;;;;;;;18.32;49.39;96713.06;10324350;28;992;-70
2023/11/03 12:02:08;;;;;;;;;;;;;;;18.34;49.18;96720.84;10323633;28;1890;-70
2023/11/03 12:07:05;;;;;;;;;;;;;;;18.38;49.71;96712.47;10324139;28;897;-70
2023/11/03 12:12:01;;;;;;;;;;;;;;;18.40;49.62;96720.25;10324691;28;939;-70
2023/11/03 12:16:57;;;;;;;;;;;;;;;18.40;49.96;96733.44;10321356;28;1049;-70
2023/11/03 12:21:52;;;;;;;;;;;;;;;18.42;49.69;96743.81;10323770;28;1951;-70
2023/11/03 12:26:48;;;;;;;;;;;;;;;18.41;50.07;96761.47;10323681;28;818;-70
2023/11/03 12:31:44;;;;;;;;;;;;;;;18.44;49.95;96757.69;10330174;28;1270;-70
2023/11/03 12:36:41;;;;;;;;;;;;;;;18.46;49.90;96764.50;10330155;28;877;-70
2023/11/03 12:41:37;;;;;;;;;;;;;;;18.50;49.89;96765.06;10330291;28;1909;-70
2023/11/03 12:46:35;;;;;;;;;;;;;;;18.51;49.70;96764.06;10329852;28;889;-71
2023/11/03 12:51:32;;;;;;;;;;;;;;;18.48;50.15;96759.91;10330612;28;791;-70
2023/11/03 12:56:28;;;;;;;;;;;;;;;18.47;50.23;96771.44;10329413;28;893;-70
2023/11/03 13:01:24;;;;;;;;;;;;;;;18.50;49.96;96791.44;10328928;28;1957;-69
2023/11/03 13:06:20;;;;;;;;;;;;;;;18.46;50.41;96803.22;10329097;28;759;-70
2023/11/03 13:11:17;;;;;;;;;;;;;;;18.44;50.23;96795.44;10329313;28;1524;-69
2023/11/03 13:16:13;;;;;;;;;;;;;;;18.40;50.31;96802.00;10329411;28;857;-69
2023/11/03 13:21:12;;;;;;;;;;;;;;;18.36;50.38;96817.25;10329376;28;1960;-70
2023/11/03 13:26:09;;;;;;;;;;;;;;;18.35;50.43;96823.50;10328967;28;827;-70
2023/11/03 13:31:06;;;;;;;;;;;;;;;18.34;49.95;96821.03;10328581;28;1303;-69
2023/11/03 13:36:02;;;;;;;;;;;;;;;18.27;50.28;96815.47;10328874;28;928;-70
2023/11/03 13:41:01;;;;;;;;;;;;;;;18.32;49.97;96825.63;10326970;28;1969;-70
2023/11/03 13:45:57;;;;;;;;;;;;;;;18.27;50.17;96814.66;10328059;28;865;-70
2023/11/03 13:50:53;;;;;;;;;;;;;;;18.22;50.42;96833.53;10327810;28;854;-69
2023/11/03 13:55:49;;;;;;;;;;;;;;;18.22;51.07;96828.25;10326762;28;949;-70
2023/11/03 14:00:45;;;;;;;;;;;;;;;18.30;51.26;96836.28;10327304;28;1893;-70
2023/11/03 14:05:41;;;;;;;;;;;;;;;18.29;51.08;96847.00;10326851;28;818;-70
2023/11/03 14:10:37;;;;;;;;;;;;;;;18.27;51.07;96843.66;10327308;28;858;-70
2023/11/03 14:15:34;;;;;;;;;;;;;;;18.24;51.34;96847.41;10325743;28;1188;-73
2023/11/03 14:20:31;;;;;;;;;;;;;;;18.22;51.13;96848.50;10326185;28;1893;-70
2023/11/03 14:25:27;;;;;;;;;;;;;;;18.24;50.94;96850.03;10325923;28;933;-70
2023/11/03 14:30:23;;;;;;;;;;;;;;;18.23;50.86;96852.81;10325889;28;1266;-69
2023/11/03 14:35:20;;;;;;;;;;;;;;;18.27;51.28;96843.66;10326287;28;885;-69
2023/11/03 14:40:17;;;;;;;;;;;;;;;18.31;50.90;96845.03;10326045;28;1906;-72
2023/11/03 14:45:13;;;;;;;;;;;;;;;18.29;50.59;96850.44;10325454;28;802;-70
2023/11/03 14:50:09;;;;;;;;;;;;;;;18.34;51.01;96861.41;10325143;28;917;-70
2023/11/03 14:55:06;;;;;;;;;;;;;;;18.39;50.86;96860.97;10326348;28;869;-70
2023/11/03 15:00:03;;;;;;;;;;;;;;;18.38;50.99;96867.22;10326166;28;1957;-70
2023/11/03 15:05:00;;;;;;;;;;;;;;;18.26;51.08;96874.47;10325935;28;861;-70
2023/11/03 15:09:56;;;;;;;;;;;;;;;18.18;50.71;96883.06;10325375;28;822;-70
2023/11/03 15:14:53;;;;;;;;;;;;;;;18.21;50.69;96886.38;10325237;28;898;-70
2023/11/03 15:19:49;;;;;;;;;;;;;;;18.20;49.88;96895.25;10325586;28;1889;-70
2023/11/03 15:24:45;;;;;;;;;;;;;;;18.22;50.17;96898.59;10325042;28;821;-68
2023/11/03 15:29:41;;;;;;;;;;;;;;;18.17;50.29;96907.75;10325508;28;1261;-70
2023/11/03 15:34:36;;;;;;;;;;;;;;;18.21;50.16;96907.47;10325519;28;869;-69
2023/11/03 15:39:34;;;;;;;;;;;;;;;18.20;50.08;96906.63;10325281;28;1975;-69
2023/11/03 15:44:29;;;;;;;;;;;;;;;18.25;50.14;96908.88;10324551;28;1108;-70
2023/11/03 15:49:29;;;;;;;;;;;;;;;18.25;50.11;96917.59;10325136;28;797;-72
2023/11/03 15:54:25;;;;;;;;;;;;;;;18.18;50.03;96911.22;10322060;28;1172;-73
2023/11/03 15:59:21;;;;;;;;;;;;;;;18.18;50.22;96919.97;10324496;28;1898;-70
2023/11/03 16:04:20;;;;;;;;;;;;;;;18.24;50.19;96933.59;10329091;28;870;-70
2023/11/03 16:09:16;;;;;;;;;;;;;;;18.26;49.99;96943.03;10331431;28;980;-70
2023/11/03 16:14:12;;;;;;;;;;;;;;;18.26;50.22;96957.97;10331947;28;846;-70
2023/11/03 16:19:11;;;;;;;;;;;;;;;18.28;50.18;96954.25;10331690;28;1955;-70
2023/11/03 16:24:09;;;;;;;;;;;;;;;18.29;50.39;96957.72;10332169;28;1053;-69
2023/11/03 16:29:06;;;;;;;;;;;;;;;18.27;50.12;96970.22;10331761;28;1390;-69
2023/11/03 16:34:01;;;;;;;;;;;;;;;18.25;50.32;96972.97;10331976;28;873;-68
2023/11/03 16:38:57;;;;;;;;;;;;;;;18.17;50.10;96976.28;10330391;28;1918;-67
2023/11/03 16:43:53;;;;;;;;;;;;;;;18.17;50.16;96978.09;10330856;28;857;-68
2023/11/03 16:48:50;;;;;;;;;;;;;;;18.12;50.19;96985.56;10331260;28;861;-67
2023/11/03 16:53:46;;;;;;;;;;;;;;;18.09;50.40;97001.66;10329977;28;1378;-68
2023/11/03 16:58:42;;;;;;;;;;;;;;;18.09;50.66;96991.97;10330261;28;1973;-70
2023/11/03 17:03:38;;;;;;;;;;;;;;;18.16;50.66;96990.44;10330063;28;937;-70
2023/11/03 17:08:34;;;;;;;;;;;;;;;18.18;50.86;96987.66;10329964;28;846;-70
2023/11/03 17:13:29;;;;;;;;;;;;;;;18.20;50.87;96990.19;10329690;28;945;-70
2023/11/03 17:18:26;;;;;;;;;;;;;;;18.20;50.90;96988.38;10329560;28;1963;-73
2023/11/03 17:23:22;;;;;;;;;;;;;;;18.17;50.86;96997.38;10329422;28;853;-72
2023/11/03 17:28:22;;;;;;;;;;;;;;;18.16;50.48;96989.63;10329759;28;1190;-72
2023/11/03 17:33:18;;;;;;;;;;;;;;;18.18;50.59;96996.44;10329736;28;1095;-70
2023/11/03 17:38:14;;;;;;;;;;;;;;;18.24;50.39;96992.41;10328515;28;1914;-70
2023/11/03 17:43:11;;;;;;;;;;;;;;;18.26;50.61;96989.63;10328428;28;974;-70
2023/11/03 17:48:08;;;;;;;;;;;;;;;18.26;50.68;96989.63;10328214;28;855;-70
2023/11/03 17:53:04;;;;;;;;;;;;;;;18.30;50.56;96991.03;10328118;28;893;-70
2023/11/03 17:57:59;;;;;;;;;;;;;;;18.33;50.51;96996.84;10328636;28;1901;-70
2023/11/03 18:02:55;;;;;;;;;;;;;;;18.31;50.56;96997.97;10328382;28;892;-70
2023/11/03 18:07:51;;;;;;;;;;;;;;;18.34;50.55;96992.44;10328170;28;766;-69
2023/11/03 18:12:49;;;;;;;;;;;;;;;18.35;50.62;96999.38;10327894;28;870;-69
2023/11/03 18:17:46;;;;;;;;;;;;;;;18.35;50.66;97008.09;10327117;28;901;-69
2023/11/03 18:22:42;;;;;;;;;;;;;;;18.34;50.72;97008.25;10327495;28;1959;-69
2023/11/03 18:27:38;;;;;;;;;;;;;;;18.35;50.68;97018.66;10327141;28;864;-70
2023/11/03 18:32:34;;;;;;;;;;;;;;;18.37;50.72;97007.97;10327174;28;1259;-69
2023/11/03 18:37:30;;;;;;;;;;;;;;;18.37;50.72;97014.06;10326490;28;881;-69
2023/11/03 18:42:29;;;;;;;;;;;;;;;18.38;50.67;97014.91;10326219;28;1923;-69
2023/11/03 18:47:25;;;;;;;;;;;;;;;18.39;50.56;97019.19;10326085;28;972;-70
2023/11/03 18:52:21;;;;;;;;;;;;;;;18.37;50.60;97022.00;10325454;28;858;-70
2023/11/03 18:57:17;;;;;;;;;;;;;;;18.37;50.68;97019.34;10325457;28;873;-70
2023/11/03 19:02:12;;;;;;;;;;;;;;;18.41;50.45;97014.63;10325710;28;1890;-69
2023/11/03 19:07:12;;;;;;;;;;;;;;;18.40;50.69;97023.53;10325102;28;962;-69
2023/11/03 19:12:09;;;;;;;;;;;;;;;18.39;50.66;97027.09;10325606;28;790;-69
2023/11/03 19:17:06;;;;;;;;;;;;;;;18.43;50.58;97032.97;10326053;28;871;-69
2023/11/03 19:22:04;;;;;;;;;;;;;;;18.44;50.42;97024.91;10325345;28;1906;-70
2023/11/03 19:27:00;;;;;;;;;;;;;;;18.42;50.62;97026.00;10325280;28;882;-69
2023/11/03 19:31:55;;;;;;;;;;;;;;;18.43;50.47;97039.06;10324591;28;1521;-69
2023/11/03 19:36:51;;;;;;;;;;;;;;;18.46;50.56;97038.78;10325859;28;880;-69
2023/11/03 19:41:47;;;;;;;;;;;;;;;18.44;50.60;97029.34;10332671;28;1983;-69
2023/11/03 19:46:44;;;;;;;;;;;;;;;18.42;50.57;97036.56;10333383;28;872;-69
2023/11/03 19:51:40;;;;;;;;;;;;;;;18.46;50.53;97045.88;10333584;28;877;-70
2023/11/03 19:56:37;;;;;;;;;;;;;;;18.47;50.47;97056.31;10333351;28;892;-70
2023/11/03 20:01:33;;;;;;;;;;;;;;;18.45;50.59;97045.03;10332436;28;1957;-70
2023/11/03 20:06:29;;;;;;;;;;;;;;;18.47;50.40;97043.13;10333439;28;1789;-70
2023/11/03 20:11:25;;;;;;;;;;;;;;;18.48;50.41;97034.22;10333241;28;782;-70
2023/11/03 20:16:21;;;;;;;;;;;;;;;18.45;50.26;97034.50;10332572;28;891;-68
2023/11/03 20:21:17;;;;;;;;;;;;;;;18.40;50.38;97044.63;10331637;28;1894;-70
2023/11/03 20:26:13;;;;;;;;;;;;;;;18.45;50.24;97039.78;10331542;28;870;-69
2023/11/03 20:31:09;;;;;;;;;;;;;;;18.48;50.40;97041.31;10330291;28;1143;-70
2023/11/03 20:36:05;;;;;;;;;;;;;;;18.47;50.48;97050.16;10329898;28;790;-70
2023/11/03 20:41:01;;;;;;;;;;;;;;;18.45;50.49;97054.78;10328534;28;1898;-69
2023/11/03 20:45:57;;;;;;;;;;;;;;;18.41;50.53;97051.56;10328544;28;823;-70
2023/11/03 20:50:54;;;;;;;;;;;;;;;18.38;50.46;97052.66;10327983;28;865;-70
2023/11/03 20:55:50;;;;;;;;;;;;;;;18.36;50.63;97048.47;10328187;28;968;-70
2023/11/03 21:00:46;;;;;;;;;;;;;;;18.37;50.53;97044.91;10328035;28;1957;-70
2023/11/03 21:05:42;;;;;;;;;;;;;;;18.34;50.40;97048.63;10327877;28;920;-70
2023/11/03 21:10:38;;;;;;;;;;;;;;;18.33;50.70;97048.75;10327749;28;783;-70
2023/11/03 21:15:34;;;;;;;;;;;;;;;18.31;50.82;97045.41;10327602;28;759;-69
2023/11/03 21:20:30;;;;;;;;;;;;;;;18.31;50.51;97033.09;10327401;28;1903;-69
2023/11/03 21:25:26;;;;;;;;;;;;;;;18.30;50.65;97043.75;10327282;28;782;-70
2023/11/03 21:30:25;;;;;;;;;;;;;;;18.31;50.80;97037.50;10289074;28;1098208;-69
2023/11/03 21:35:21;;;;;;;;;;;;;;;18.26;50.61;97031.81;10328974;28;846;-69
2023/11/03 21:40:17;;;;;;;;;;;;;;;18.25;50.76;97030.97;10328588;28;1914;-70
2023/11/03 21:45:14;;;;;;;;;;;;;;;18.27;50.63;97022.94;10329127;28;826;-69
2023/11/03 21:50:10;;;;;;;;;;;;;;;18.24;50.66;97018.78;10328341;28;884;-69
2023/11/03 21:55:06;;;;;;;;;;;;;;;18.22;50.58;97027.78;10327564;28;1000;-69
2023/11/03 22:00:04;;;;;;;;;;;;;;;18.19;50.81;97018.34;10327709;28;1961;-70
2023/11/03 22:05:00;;;;;;;;;;;;;;;18.18;50.73;97008.75;10328325;28;838;-69
2023/11/03 22:09:56;;;;;;;;;;;;;;;18.15;50.77;97004.59;10327366;28;873;-69
2023/11/03 22:14:52;;;;;;;;;;;;;;;18.17;50.57;97007.09;10327297;28;825;-69
2023/11/03 22:19:48;;;;;;;;;;;;;;;18.16;50.71;97011.53;10327078;28;1955;-69
2023/11/03 22:24:44;;;;;;;;;;;;;;;18.15;50.79;97017.75;10327545;28;826;-70
2023/11/03 22:29:40;;;;;;;;;;;;;;;18.13;50.90;97022.38;10327826;28;1322;-69
2023/11/03 22:34:35;;;;;;;;;;;;;;;18.11;50.87;97024.28;10326150;28;1016;-69
2023/11/03 22:39:32;;;;;;;;;;;;;;;18.08;50.96;97016.66;10326798;28;1914;-69
2023/11/03 22:44:28;;;;;;;;;;;;;;;18.10;50.73;97029.69;10326836;28;941;-70
2023/11/03 22:49:24;;;;;;;;;;;;;;;18.10;50.93;97029.69;10326394;28;830;-69
2023/11/03 22:54:20;;;;;;;;;;;;;;;18.08;51.08;97032.47;10326053;28;817;-69
2023/11/03 22:59:16;;;;;;;;;;;;;;;18.06;51.13;97037.03;10325793;28;1960;-69
2023/11/03 23:04:12;;;;;;;;;;;;;;;18.06;50.98;97041.47;10326385;28;782;-69
2023/11/03 23:09:11;;;;;;;;;;;;;;;18.05;50.83;97038.03;10325581;28;905;-69
2023/11/03 23:14:07;;;;;;;;;;;;;;;18.05;50.95;97037.16;10325305;28;1211;-70
2023/11/03 23:19:03;;;;;;;;;;;;;;;18.05;50.97;97035.38;10324687;28;1890;-70
2023/11/03 23:23:58;;;;;;;;;;;;;;;18.03;51.06;97037.31;10325395;28;926;-69
2023/11/03 23:28:54;;;;;;;;;;;;;;;18.01;51.04;97028.69;10325226;28;1262;-69
2023/11/03 23:33:50;;;;;;;;;;;;;;;17.98;51.03;97030.78;10325887;28;865;-70
2023/11/03 23:38:46;;;;;;;;;;;;;;;18.00;50.85;97039.38;10324476;28;1910;-70
2023/11/03 23:43:42;;;;;;;;;;;;;;;18.00;50.86;97037.59;10324358;28;901;-70
2023/11/03 23:48:38;;;;;;;;;;;;;;;17.98;50.94;97026.34;10324872;28;893;-69
2023/11/03 23:53:34;;;;;;;;;;;;;;;17.96;50.87;97031.72;10325372;28;951;-69
2023/11/03 23:58:30;;;;;;;;;;;;;;;17.96;50.86;97020.34;10325171;28;1895;-69
